Time;durP1;ratioP1;P1;durP2;ratioP2;P2;SDS_P1;SDS_P2;PMS_P1;PMS_P2;Temp;Humidity;BMP_temperature;BMP_pressure;BME280_temperature;BME280_humidity;BME280_pressure;Samples;Min_cycle;Max_cycle;Signal;HPM_P1;HPM_P2
2023/06/11 00:01:08;;;;;;;3.10;1.55;;;20.10;99.90;;;;;;4987318;28;20027;-78
2023/06/11 00:03:34;;;;;;;2.67;1.92;;;20.00;99.90;;;;;;4988111;28;20069;-78
2023/06/11 00:06:00;;;;;;;3.45;1.60;;;19.90;99.90;;;;;;4986146;28;20531;-79
2023/06/11 00:08:29;;;;;;;2.15;1.70;;;19.90;99.90;;;;;;4986150;28;20034;-79
2023/06/11 00:10:54;;;;;;;2.45;2.15;;;19.90;99.90;;;;;;4986978;28;20031;-79
2023/06/11 00:13:20;;;;;;;2.90;1.90;;;19.90;99.90;;;;;;4989242;28;20048;-79
2023/06/11 00:15:45;;;;;;;2.33;1.83;;;19.80;99.90;;;;;;4984894;28;20022;-80
2023/06/11 00:18:11;;;;;;;2.50;2.03;;;19.90;99.90;;;;;;4987872;28;20145;-79
2023/06/11 00:20:40;;;;;;;2.38;2.03;;;19.90;99.90;;;;;;4983851;28;20104;-79
2023/06/11 00:23:06;;;;;;;3.78;2.42;;;19.90;99.90;;;;;;5002033;28;20038;-80
2023/06/11 00:25:32;;;;;;;4.05;2.40;;;20.00;99.90;;;;;;4987103;28;20026;-79
2023/06/11 00:27:58;;;;;;;2.00;1.80;;;20.00;99.90;;;;;;4982371;28;20350;-79
2023/06/11 00:30:24;;;;;;;3.60;2.47;;;19.90;99.90;;;;;;5002405;28;20394;-79
2023/06/11 00:32:50;;;;;;;4.70;2.15;;;19.90;99.90;;;;;;4982296;28;20233;-78
2023/06/11 00:35:16;;;;;;;2.95;1.98;;;19.90;99.90;;;;;;4968166;28;20022;-79
2023/06/11 00:37:42;;;;;;;2.72;2.22;;;19.90;99.90;;;;;;4983982;28;20498;-78
2023/06/11 00:40:09;;;;;;;3.30;2.10;;;19.90;99.90;;;;;;4987293;28;20125;-79
2023/06/11 00:42:35;;;;;;;3.25;1.90;;;19.90;99.90;;;;;;4985995;28;20566;-78
2023/06/11 00:45:03;;;;;;;2.53;1.80;;;19.90;99.90;;;;;;4982806;28;20030;-78
2023/06/11 00:47:29;;;;;;;4.97;2.08;;;19.80;99.90;;;;;;4992552;28;20065;-78
2023/06/11 00:49:56;;;;;;;2.72;1.92;;;19.90;99.90;;;;;;4987462;28;20026;-78
2023/06/11 00:52:22;;;;;;;2.88;2.38;;;19.90;99.90;;;;;;4998104;28;20031;-78
2023/06/11 00:54:48;;;;;;;2.42;2.17;;;19.90;99.90;;;;;;4998085;28;20031;-79
2023/06/11 00:57:17;;;;;;;2.45;1.95;;;19.90;99.90;;;;;;4988431;28;20097;-78
2023/06/11 00:59:48;;;;;;;2.70;2.30;;;19.90;99.90;;;;;;4963914;28;20047;-78
2023/06/11 01:02:21;;;;;;;3.10;2.38;;;19.90;99.90;;;;;;4983391;28;20113;-78
2023/06/11 01:04:51;;;;;;;5.07;2.53;;;19.90;99.90;;;;;;4993925;28;20030;-78
2023/06/11 01:07:18;;;;;;;;;;;19.90;99.90;;;;;;4986688;28;20065;-78
2023/06/11 01:09:45;;;;;;;2.45;1.75;;;19.80;99.90;;;;;;4985136;28;19920;-78
2023/06/11 01:12:12;;;;;;;2.80;2.30;;;19.80;99.90;;;;;;4999775;28;20034;-79
2023/06/11 01:14:39;;;;;;;3.08;2.08;;;19.90;99.90;;;;;;4989356;28;20026;-78
2023/06/11 01:17:23;;;;;;;2.75;2.20;;;19.90;99.90;;;;;;4984945;28;20030;-78
2023/06/11 01:20:03;;;;;;;2.78;1.90;;;19.90;99.90;;;;;;4994644;28;20033;-78
2023/06/11 01:22:41;;;;;;;4.10;2.50;;;19.90;99.90;;;;;;4982409;28;20566;-78
2023/06/11 01:25:50;;;;;;;2.85;1.90;;;19.80;99.90;;;;;;4984389;28;20064;-78
2023/06/11 01:28:26;;;;;;;2.40;1.60;;;19.80;99.90;;;;;;4984633;28;20406;-78
2023/06/11 01:30:57;;;;;;;3.08;2.20;;;19.80;99.90;;;;;;4978735;28;20088;-79
2023/06/11 01:33:27;;;;;;;3.55;2.08;;;19.80;99.90;;;;;;4967925;28;20030;-78
2023/06/11 01:35:57;;;;;;;5.15;2.45;;;19.80;99.90;;;;;;4999901;28;20078;-79
2023/06/11 01:38:34;;;;;;;3.03;1.70;;;19.80;99.90;;;;;;4964443;28;20495;-78
2023/06/11 01:41:03;;;;;;;3.72;2.47;;;19.80;99.90;;;;;;4990490;28;20419;-79
2023/06/11 01:43:29;;;;;;;2.88;2.10;;;19.70;99.90;;;;;;4995054;28;20053;-79
2023/06/11 01:45:56;;;;;;;2.53;2.10;;;19.80;99.90;;;;;;4988262;28;20026;-78
2023/06/11 01:48:22;;;;;;;3.17;1.95;;;19.70;99.90;;;;;;4996911;28;20233;-80
2023/06/11 01:50:47;;;;;;;2.42;2.22;;;19.70;99.90;;;;;;4987185;28;20019;-79
2023/06/11 01:53:14;;;;;;;3.42;2.00;;;19.70;99.90;;;;;;4981710;28;20035;-80
2023/06/11 01:55:40;;;;;;;2.15;1.80;;;19.60;99.90;;;;;;4984009;28;20494;-79
2023/06/11 01:58:05;;;;;;;3.53;2.15;;;19.60;99.90;;;;;;4981810;28;20026;-78
2023/06/11 02:00:31;;;;;;;4.20;1.77;;;19.60;99.90;;;;;;4975974;28;20034;-79
2023/06/11 02:02:59;;;;;;;3.58;1.92;;;19.60;99.90;;;;;;4999288;28;20517;-80
2023/06/11 02:05:25;;;;;;;2.70;2.40;;;19.60;99.90;;;;;;4989093;28;20529;-79
2023/06/11 02:07:51;;;;;;;3.88;2.05;;;19.60;99.90;;;;;;4968298;28;20022;-79
2023/06/11 02:10:16;;;;;;;2.60;2.33;;;19.60;99.90;;;;;;4985502;28;20038;-80
2023/06/11 02:12:42;;;;;;;3.40;2.47;;;19.60;99.90;;;;;;4983795;28;20060;-79
2023/06/11 02:15:08;;;;;;;3.97;3.08;;;19.50;99.90;;;;;;4986395;28;20042;-79
2023/06/11 02:17:34;;;;;;;3.80;2.40;;;19.50;99.90;;;;;;4995970;28;20027;-80
2023/06/11 02:20:00;;;;;;;4.30;3.33;;;19.50;99.90;;;;;;4986688;28;20038;-78
2023/06/11 02:22:25;;;;;;;4.97;3.25;;;19.40;99.90;;;;;;4991114;28;20173;-79
2023/06/11 02:24:51;;;;;;;4.30;3.38;;;19.40;99.90;;;;;;5005569;28;20030;-80
2023/06/11 02:27:17;;;;;;;5.85;3.00;;;19.40;99.90;;;;;;5004158;28;20501;-80
2023/06/11 02:29:43;;;;;;;3.60;3.30;;;19.40;99.90;;;;;;5009240;28;20108;-79
2023/06/11 02:32:10;;;;;;;2.97;2.67;;;19.40;99.90;;;;;;5005046;28;20030;-79
2023/06/11 02:34:36;;;;;;;5.47;3.28;;;19.30;99.90;;;;;;5018658;28;20109;-79
2023/06/11 02:37:01;;;;;;;3.20;2.72;;;19.30;99.90;;;;;;5019261;28;20073;-79
2023/06/11 02:39:27;;;;;;;2.38;1.67;;;19.30;99.90;;;;;;4995704;28;20030;-79
2023/06/11 02:41:53;;;;;;;2.70;2.10;;;19.20;99.90;;;;;;4990028;28;20025;-79
2023/06/11 02:44:18;;;;;;;3.20;1.92;;;19.20;99.90;;;;;;5001291;28;20379;-79
2023/06/11 02:46:44;;;;;;;3.35;1.58;;;19.20;99.90;;;;;;5019844;28;20463;-79
2023/06/11 02:49:10;;;;;;;3.30;1.90;;;19.20;99.90;;;;;;5016035;28;20049;-79
2023/06/11 02:51:35;;;;;;;2.83;1.80;;;19.10;99.90;;;;;;4991669;28;20022;-79
2023/06/11 02:54:02;;;;;;;2.55;1.90;;;19.10;99.90;;;;;;5007592;28;20531;-79
2023/06/11 02:56:28;;;;;;;2.17;1.88;;;19.10;99.90;;;;;;5026116;28;20026;-79
2023/06/11 02:58:54;;;;;;;3.10;2.25;;;19.10;99.90;;;;;;5015001;28;20038;-79
2023/06/11 03:01:19;;;;;;;2.17;1.88;;;19.00;99.90;;;;;;5010232;28;20018;-79
2023/06/11 03:03:45;;;;;;;3.40;2.15;;;19.00;99.90;;;;;;4992127;28;20033;-79
2023/06/11 03:06:14;;;;;;;2.10;1.80;;;19.00;99.90;;;;;;5021642;28;20032;-79
2023/06/11 03:08:39;;;;;;;2.65;2.30;;;19.00;99.90;;;;;;5018831;28;20026;-78
2023/06/11 03:11:05;;;;;;;3.67;1.88;;;18.90;99.90;;;;;;5018238;28;20109;-79
2023/06/11 03:13:34;;;;;;;2.95;1.98;;;18.90;99.90;;;;;;5016360;28;20032;-78
2023/06/11 03:16:00;;;;;;;2.80;1.85;;;18.90;99.90;;;;;;5019903;28;20033;-78
2023/06/11 03:18:26;;;;;;;4.47;2.58;;;18.90;99.90;;;;;;4990965;28;20045;-78
2023/06/11 03:20:52;;;;;;;2.58;2.00;;;18.90;99.90;;;;;;5019386;28;20641;-79
2023/06/11 03:23:18;;;;;;;2.42;1.95;;;18.90;99.90;;;;;;4987957;28;20132;-78
2023/06/11 03:25:44;;;;;;;2.58;1.70;;;18.80;99.90;;;;;;5010393;28;20414;-77
2023/06/11 03:28:10;;;;;;;2.17;1.73;;;18.80;99.90;;;;;;4992541;28;20026;-78
2023/06/11 03:30:36;;;;;;;3.17;2.10;;;18.80;99.90;;;;;;5016990;28;20030;-79
2023/06/11 03:33:03;;;;;;;2.88;2.58;;;18.70;99.90;;;;;;5020211;28;20036;-79
2023/06/11 03:35:29;;;;;;;2.50;1.60;;;18.70;99.90;;;;;;5024262;28;20026;-78
2023/06/11 03:38:00;;;;;;;2.53;1.60;;;18.60;99.90;;;;;;4991820;28;20038;-79
2023/06/11 03:40:25;;;;;;;2.13;1.48;;;18.60;99.90;;;;;;4998808;28;20588;-78
2023/06/11 03:42:53;;;;;;;2.88;1.95;;;18.60;99.90;;;;;;5008933;28;20470;-79
2023/06/11 03:45:19;;;;;;;2.28;1.85;;;18.60;99.90;;;;;;5017279;28;20109;-79
2023/06/11 03:47:45;;;;;;;3.03;1.70;;;18.60;99.90;;;;;;5005752;28;20480;-79
2023/06/11 03:50:12;;;;;;;3.22;2.55;;;18.60;99.90;;;;;;5007881;28;20049;-79
2023/06/11 03:52:38;;;;;;;3.08;2.20;;;18.60;99.90;;;;;;5020543;28;20025;-79
2023/06/11 03:55:08;;;;;;;2.75;2.10;;;18.50;99.90;;;;;;5019635;28;20493;-79
2023/06/11 03:57:33;;;;;;;2.58;2.08;;;18.60;99.90;;;;;;5016874;28;20034;-79
2023/06/11 03:59:59;;;;;;;2.15;1.83;;;18.60;99.90;;;;;;5008766;28;20030;-79
2023/06/11 04:02:26;;;;;;;2.55;1.55;;;18.60;99.90;;;;;;5008182;28;20033;-79
2023/06/11 04:04:52;;;;;;;2.33;2.13;;;18.60;99.90;;;;;;5009520;28;20478;-79
2023/06/11 04:07:19;;;;;;;2.40;1.83;;;18.60;99.90;;;;;;5002168;28;20083;-79
2023/06/11 04:09:46;;;;;;;2.33;2.03;;;18.60;99.90;;;;;;4990317;28;20128;-79
2023/06/11 04:12:12;;;;;;;4.57;2.22;;;18.60;99.90;;;;;;5004120;28;20478;-79
2023/06/11 04:14:37;;;;;;;2.30;1.67;;;18.60;99.90;;;;;;5013698;28;20134;-78
2023/06/11 04:17:03;;;;;;;2.35;1.85;;;18.60;99.90;;;;;;5006925;28;20065;-79
2023/06/11 04:19:29;;;;;;;3.60;1.65;;;18.70;99.90;;;;;;5012320;28;20479;-80
2023/06/11 04:21:55;;;;;;;2.63;1.63;;;18.70;99.90;;;;;;5005865;28;20105;-79
2023/06/11 04:24:22;;;;;;;2.97;2.20;;;18.80;99.90;;;;;;5003662;28;20041;-79
2023/06/11 04:26:48;;;;;;;2.40;1.98;;;18.90;99.90;;;;;;5022904;28;20022;-78
2023/06/11 04:29:15;;;;;;;2.90;2.03;;;18.90;99.90;;;;;;5019106;28;20494;-79
2023/06/11 04:31:46;;;;;;;4.40;2.05;;;19.00;99.90;;;;;;5003898;28;20025;-79
2023/06/11 04:34:16;;;;;;;2.47;1.75;;;19.10;99.90;;;;;;5006172;28;20038;-78
2023/06/11 04:36:44;;;;;;;2.38;1.80;;;19.20;99.90;;;;;;5012605;28;20117;-78
2023/06/11 04:39:10;;;;;;;2.35;1.95;;;19.30;99.90;;;;;;5017657;28;20083;-78
2023/06/11 04:41:37;;;;;;;3.13;2.13;;;19.50;99.90;;;;;;4992926;28;20022;-77
2023/06/11 04:44:04;;;;;;;2.03;1.40;;;19.60;99.90;;;;;;5006567;28;20394;-78
2023/06/11 04:46:34;;;;;;;2.25;1.70;;;19.80;99.90;;;;;;5015872;28;20395;-78
2023/06/11 04:49:04;;;;;;;3.67;2.25;;;19.90;99.90;;;;;;5016504;28;20042;-78
2023/06/11 04:51:32;;;;;;;3.25;1.80;;;20.00;99.90;;;;;;5007332;28;20387;-78
2023/06/11 04:54:07;;;;;;;2.28;1.63;;;20.20;99.90;;;;;;4999742;28;20030;-78
2023/06/11 04:56:34;;;;;;;3.67;2.00;;;20.40;99.90;;;;;;5012144;28;20022;-78
2023/06/11 04:59:05;;;;;;;2.47;1.80;;;20.60;99.90;;;;;;5016045;28;20025;-79
2023/06/11 05:01:32;;;;;;;3.97;2.20;;;20.70;99.90;;;;;;4983840;28;20388;-77
2023/06/11 05:03:59;;;;;;;2.50;1.67;;;20.80;99.90;;;;;;5005885;28;20030;-78
2023/06/11 05:06:25;;;;;;;2.55;1.80;;;20.90;99.90;;;;;;5020036;28;20496;-79
2023/06/11 05:08:54;;;;;;;2.13;1.67;;;21.00;99.90;;;;;;5014097;28;20037;-78
2023/06/11 05:11:21;;;;;;;5.05;2.53;;;21.10;99.90;;;;;;5014726;28;20117;-80
2023/06/11 05:13:46;;;;;;;2.60;1.65;;;21.20;99.90;;;;;;5001916;28;20415;-80
2023/06/11 05:16:12;;;;;;;2.97;1.90;;;21.30;99.90;;;;;;5019185;28;20072;-79
2023/06/11 05:18:38;;;;;;;3.28;2.13;;;21.30;99.90;;;;;;5016743;28;20034;-79
2023/06/11 05:21:06;;;;;;;3.65;1.80;;;21.40;99.90;;;;;;5015384;28;20907;-79
2023/06/11 05:23:33;;;;;;;3.05;1.80;;;21.50;99.90;;;;;;5013397;28;20029;-80
2023/06/11 05:26:11;;;;;;;2.88;2.08;;;21.60;99.90;;;;;;5005631;28;20536;-79
2023/06/11 05:28:40;;;;;;;2.60;1.90;;;21.60;99.90;;;;;;4996335;28;20065;-80
2023/06/11 05:31:11;;;;;;;2.35;1.98;;;21.80;99.90;;;;;;5006423;28;20025;-80
2023/06/11 05:33:37;;;;;;;3.75;2.15;;;21.90;99.90;;;;;;5006303;28;20030;-80
2023/06/11 05:36:04;;;;;;;3.22;2.08;;;22.00;99.90;;;;;;5002058;28;20394;-79
2023/06/11 05:38:29;;;;;;;3.13;1.83;;;22.10;99.90;;;;;;5003369;28;20073;-80
2023/06/11 05:40:56;;;;;;;2.97;2.47;;;22.20;99.90;;;;;;5000704;28;20117;-80
2023/06/11 05:43:23;;;;;;;3.63;1.65;;;22.20;99.90;;;;;;5017888;28;20120;-80
2023/06/11 05:45:49;;;;;;;3.92;2.15;;;22.30;99.90;;;;;;4987943;28;20033;-79
2023/06/11 05:48:17;;;;;;;2.40;1.98;;;22.40;99.90;;;;;;5019519;28;20085;-79
2023/06/11 05:50:43;;;;;;;2.65;2.05;;;22.50;99.90;;;;;;5004114;28;20422;-80
2023/06/11 05:53:09;;;;;;;3.72;2.75;;;22.70;99.90;;;;;;4988303;28;20029;-79
2023/06/11 05:55:38;;;;;;;3.10;2.00;;;22.90;99.90;;;;;;4992548;28;20474;-79
2023/06/11 05:58:05;;;;;;;2.35;2.08;;;22.80;99.90;;;;;;5015664;28;20129;-78
2023/06/11 06:00:31;;;;;;;3.58;2.15;;;23.00;99.90;;;;;;5022429;28;20113;-78
2023/06/11 06:02:58;;;;;;;3.85;2.28;;;23.30;99.90;;;;;;5015258;28;20022;-79
2023/06/11 06:05:28;;;;;;;3.20;2.53;;;23.30;99.90;;;;;;5022393;28;20104;-78
2023/06/11 06:07:54;;;;;;;2.67;2.03;;;23.40;99.90;;;;;;5001566;28;20022;-78
2023/06/11 06:10:21;;;;;;;4.15;1.98;;;23.60;99.90;;;;;;5016506;28;20041;-77
2023/06/11 06:12:47;;;;;;;2.00;1.75;;;23.60;99.90;;;;;;5003661;28;20030;-79
2023/06/11 06:15:13;;;;;;;2.55;1.92;;;23.80;99.90;;;;;;5013124;28;20034;-79
2023/06/11 06:17:41;;;;;;;2.75;1.90;;;23.90;99.90;;;;;;4987558;28;20380;-79
2023/06/11 06:20:10;;;;;;;2.53;2.33;;;24.20;99.90;;;;;;5017580;28;20049;-79
2023/06/11 06:22:37;;;;;;;2.70;2.22;;;24.40;99.90;;;;;;5002570;28;20030;-79
2023/06/11 06:25:04;;;;;;;2.63;2.42;;;24.20;99.90;;;;;;4999655;28;20047;-79
2023/06/11 06:27:30;;;;;;;3.25;2.70;;;24.40;99.90;;;;;;5017897;28;20406;-78
2023/06/11 06:29:56;;;;;;;2.15;1.80;;;24.30;99.90;;;;;;5019059;28;20038;-79
2023/06/11 06:32:22;;;;;;;2.53;1.80;;;24.60;99.90;;;;;;5020732;28;20124;-79
2023/06/11 06:34:47;;;;;;;2.88;2.00;;;24.70;99.90;;;;;;4991146;28;20478;-79
2023/06/11 06:37:13;;;;;;;2.53;1.80;;;24.90;99.90;;;;;;5007301;28;20116;-79
2023/06/11 06:39:42;;;;;;;3.75;1.90;;;25.00;99.90;;;;;;5008832;28;20030;-80
2023/06/11 06:42:08;;;;;;;2.50;2.10;;;25.20;99.90;;;;;;5003189;28;20025;-79
2023/06/11 06:44:38;;;;;;;3.50;2.63;;;25.40;99.90;;;;;;5020791;28;20395;-79
2023/06/11 06:47:04;;;;;;;3.55;2.00;;;25.30;99.90;;;;;;5001420;28;20032;-79
2023/06/11 06:49:30;;;;;;;3.75;2.08;;;25.60;99.90;;;;;;5004941;28;20034;-79
2023/06/11 06:51:56;;;;;;;3.13;2.20;;;25.60;99.90;;;;;;5020897;28;20030;-80
2023/06/11 06:54:22;;;;;;;3.65;1.88;;;25.90;99.90;;;;;;5006389;28;20176;-80
2023/06/11 06:56:49;;;;;;;2.58;1.85;;;26.00;99.90;;;;;;5020545;28;20018;-80
2023/06/11 06:59:16;;;;;;;2.03;1.83;;;26.00;99.90;;;;;;5007460;28;20048;-79
2023/06/11 07:01:42;;;;;;;3.40;2.35;;;26.30;99.90;;;;;;4992877;28;20033;-80
2023/06/11 07:04:08;;;;;;;2.90;1.77;;;26.20;99.90;;;;;;5003738;28;20022;-81
2023/06/11 07:06:34;;;;;;;4.13;1.73;;;26.30;99.90;;;;;;5022195;28;20382;-80
2023/06/11 07:09:03;;;;;;;3.17;2.10;;;26.50;99.90;;;;;;5008434;28;20057;-80
2023/06/11 07:11:29;;;;;;;2.40;1.57;;;26.60;99.90;;;;;;5008496;28;20026;-80
2023/06/11 07:13:56;;;;;;;2.38;1.88;;;26.70;99.90;;;;;;5016994;28;20293;-80
2023/06/11 07:16:21;;;;;;;2.70;1.50;;;27.20;99.90;;;;;;5002791;28;20022;-80
2023/06/11 07:18:54;;;;;;;2.92;1.83;;;27.10;99.90;;;;;;5016114;28;20537;-80
2023/06/11 07:21:20;;;;;;;2.53;1.83;;;27.20;99.90;;;;;;5000690;28;20073;-80
2023/06/11 07:23:46;;;;;;;3.72;1.80;;;27.20;99.90;;;;;;5003110;28;20112;-80
2023/06/11 07:26:15;;;;;;;2.20;1.70;;;27.50;99.90;;;;;;5016955;28;20498;-80
2023/06/11 07:28:41;;;;;;;2.08;1.85;;;27.50;99.90;;;;;;5017725;28;20121;-81
2023/06/11 07:31:08;;;;;;;2.65;1.98;;;27.70;99.90;;;;;;5014586;28;20542;-79
2023/06/11 07:33:35;;;;;;;3.97;1.70;;;27.70;99.90;;;;;;5024268;28;20117;-79
2023/06/11 07:36:01;;;;;;;2.63;1.83;;;27.80;99.90;;;;;;5008449;28;20805;-79
2023/06/11 07:38:27;;;;;;;2.38;1.90;;;28.10;99.90;;;;;;4999956;28;20068;-79
2023/06/11 07:40:52;;;;;;;3.42;1.58;;;28.00;99.90;;;;;;5016474;28;20442;-79
2023/06/11 07:43:21;;;;;;;2.23;1.30;;;28.10;99.90;;;;;;5003232;28;20088;-79
2023/06/11 07:45:47;;;;;;;2.60;1.80;;;28.30;99.90;;;;;;5002793;28;20641;-79
2023/06/11 07:48:13;;;;;;;1.70;0.95;;;28.40;99.90;;;;;;5017743;28;20594;-79
2023/06/11 07:50:38;;;;;;;4.30;2.22;;;28.60;99.90;;;;;;5014984;28;20461;-79
2023/06/11 07:53:04;;;;;;;2.13;1.73;;;28.30;99.90;;;;;;5018983;28;20026;-79
2023/06/11 07:55:31;;;;;;;1.95;1.25;;;28.60;99.90;;;;;;5017833;28;20065;-80
2023/06/11 07:57:57;;;;;;;2.05;1.60;;;28.60;99.90;;;;;;5001499;28;20053;-79
2023/06/11 08:00:22;;;;;;;4.32;1.30;;;28.90;99.90;;;;;;5005247;28;20037;-80
2023/06/11 08:02:48;;;;;;;2.10;1.52;;;29.10;99.90;;;;;;5014850;28;20037;-79
2023/06/11 08:05:20;;;;;;;2.67;1.35;;;29.00;99.90;;;;;;5005465;28;20088;-80
2023/06/11 08:07:47;;;;;;;4.22;1.90;;;28.80;99.90;;;;;;5019181;28;20038;-80
2023/06/11 08:10:13;;;;;;;2.95;1.73;;;28.70;99.90;;;;;;5003544;28;20073;-80
2023/06/11 08:12:39;;;;;;;1.55;1.27;;;28.70;99.90;;;;;;5006792;28;20049;-79
2023/06/11 08:15:05;;;;;;;4.00;1.92;;;28.90;99.90;;;;;;5004710;28;20076;-79
2023/06/11 08:17:31;;;;;;;2.10;1.55;;;28.90;99.90;;;;;;5000457;28;20165;-80
2023/06/11 08:19:57;;;;;;;1.90;1.33;;;29.20;99.90;;;;;;4998199;28;20121;-80
2023/06/11 08:22:23;;;;;;;1.90;1.42;;;29.40;99.90;;;;;;5019008;28;20042;-79
2023/06/11 08:24:48;;;;;;;3.15;1.40;;;29.30;99.90;;;;;;5007752;28;20137;-79
2023/06/11 08:27:14;;;;;;;4.93;1.58;;;29.30;99.90;;;;;;5001920;28;20474;-79
2023/06/11 08:29:41;;;;;;;2.00;1.58;;;29.20;99.90;;;;;;4999675;28;20440;-79
2023/06/11 08:32:07;;;;;;;2.05;1.60;;;29.30;99.90;;;;;;5001699;28;20033;-79
2023/06/11 08:34:32;;;;;;;2.53;1.48;;;29.50;99.90;;;;;;5001364;28;20563;-80
2023/06/11 08:36:58;;;;;;;2.03;1.30;;;29.50;99.90;;;;;;4999829;28;20176;-80
2023/06/11 08:39:24;;;;;;;2.95;1.48;;;29.80;99.90;;;;;;5003792;28;20390;-80
2023/06/11 08:41:50;;;;;;;1.52;1.02;;;29.80;99.90;;;;;;5000108;28;20022;-80
2023/06/11 08:44:16;;;;;;;1.92;1.42;;;29.90;99.90;;;;;;4998391;28;20029;-79
2023/06/11 08:46:44;;;;;;;1.70;1.00;;;30.20;99.90;;;;;;5000229;28;20018;-80
2023/06/11 08:49:19;;;;;;;1.80;1.10;;;30.40;99.90;;;;;;4999526;28;20108;-79
2023/06/11 08:51:45;;;;;;;1.95;1.42;;;30.50;99.90;;;;;;5000475;28;20037;-80
2023/06/11 08:54:11;;;;;;;2.78;1.33;;;30.60;99.90;;;;;;5002017;28;20026;-80
2023/06/11 08:56:37;;;;;;;3.08;1.33;;;30.40;99.90;;;;;;5005936;28;20022;-80
2023/06/11 08:59:03;;;;;;;1.80;1.27;;;30.40;99.70;;;;;;4998714;28;20037;-81
2023/06/11 09:01:31;;;;;;;2.97;1.27;;;30.80;99.90;;;;;;5006451;28;20455;-80
2023/06/11 09:03:57;;;;;;;2.03;1.48;;;30.70;99.90;;;;;;5003817;28;20221;-80
2023/06/11 09:06:23;;;;;;;2.30;1.27;;;30.60;99.30;;;;;;5003622;28;20026;-80
2023/06/11 09:09:00;;;;;;;2.42;1.40;;;30.40;99.60;;;;;;5006029;28;20030;-79
2023/06/11 09:11:33;;;;;;;2.35;1.20;;;30.40;99.90;;;;;;5017440;28;20423;-80
2023/06/11 09:13:59;;;;;;;1.80;0.82;;;30.60;99.90;;;;;;4999626;28;20025;-80
2023/06/11 09:16:25;;;;;;;1.73;1.05;;;30.70;99.50;;;;;;5007537;28;20028;-80
2023/06/11 09:18:51;;;;;;;1.98;1.00;;;31.10;99.60;;;;;;5000203;28;20034;-80
2023/06/11 09:21:17;;;;;;;2.13;1.23;;;31.60;99.40;;;;;;5000572;28;20058;-80
2023/06/11 09:23:45;;;;;;;2.60;1.20;;;31.40;98.80;;;;;;5005475;28;20458;-80
2023/06/11 09:26:17;;;;;;;2.08;0.98;;;31.40;99.30;;;;;;5002422;28;20418;-80
2023/06/11 09:28:42;;;;;;;2.58;1.05;;;31.90;98.90;;;;;;4996989;28;20044;-80
2023/06/11 09:31:08;;;;;;;2.55;1.00;;;31.60;98.60;;;;;;5002704;28;20022;-80
2023/06/11 09:33:36;;;;;;;2.60;0.90;;;31.20;97.50;;;;;;4998536;28;20030;-80
2023/06/11 09:36:03;;;;;;;1.70;0.70;;;31.60;98.60;;;;;;5001799;28;20049;-80
2023/06/11 09:38:34;;;;;;;2.10;0.90;;;31.80;98.20;;;;;;5015568;28;20049;-80
2023/06/11 09:41:00;;;;;;;1.20;0.60;;;31.90;97.50;;;;;;5018746;28;20026;-80
2023/06/11 09:43:25;;;;;;;3.15;0.70;;;31.80;97.50;;;;;;4999644;28;20030;-79
2023/06/11 09:45:53;;;;;;;3.92;0.80;;;31.80;97.50;;;;;;5003364;28;20072;-80
2023/06/11 09:48:20;;;;;;;1.60;0.70;;;31.80;96.90;;;;;;4997281;28;20085;-80
2023/06/11 09:50:49;;;;;;;1.00;0.60;;;32.10;97.20;;;;;;5014789;28;20026;-80
2023/06/11 09:53:15;;;;;;;1.58;0.70;;;32.10;96.10;;;;;;5001950;28;20058;-81
2023/06/11 09:55:41;;;;;;;3.42;0.80;;;32.10;96.50;;;;;;5020601;28;20025;-80
2023/06/11 09:58:08;;;;;;;1.25;0.60;;;32.40;97.30;;;;;;5004606;28;20472;-80
2023/06/11 10:00:35;;;;;;;1.30;0.60;;;32.60;95.90;;;;;;5003858;28;20462;-80
2023/06/11 10:03:01;;;;;;;1.52;0.60;;;32.30;96.10;;;;;;5004952;28;20136;-80
2023/06/11 10:05:28;;;;;;;1.50;0.80;;;32.40;96.00;;;;;;5002509;28;20046;-80
2023/06/11 10:08:28;;;;;;;1.77;0.60;;;32.20;95.70;;;;;;5003424;28;20030;-80
2023/06/11 10:10:58;;;;;;;2.28;0.60;;;32.10;96.40;;;;;;5032080;28;20039;-80
2023/06/11 10:13:29;;;;;;;1.63;0.88;;;32.50;96.00;;;;;;5015613;28;20037;-81
2023/06/11 10:15:56;;;;;;;1.05;0.63;;;32.40;96.70;;;;;;5003852;28;20026;-81
2023/06/11 10:18:26;;;;;;;1.48;0.90;;;32.50;96.80;;;;;;5007803;28;20048;-80
2023/06/11 10:20:59;;;;;;;1.50;0.70;;;32.40;96.70;;;;;;5002458;28;20065;-81
2023/06/11 10:23:42;;;;;;;1.75;0.60;;;32.60;96.00;;;;;;5005050;28;20108;-80
2023/06/11 10:26:11;;;;;;;1.45;0.70;;;32.50;96.60;;;;;;5003993;28;20061;-81
2023/06/11 10:28:42;;;;;;;1.30;0.63;;;32.60;95.70;;;;;;5004792;28;20038;-80
2023/06/11 10:31:07;;;;;;;1.70;0.70;;;32.30;96.30;;;;;;5009128;28;20671;-80
2023/06/11 10:33:40;;;;;;;1.85;0.80;;;32.70;95.70;;;;;;5017766;28;20030;-80
2023/06/11 10:36:06;;;;;;;2.03;0.93;;;32.80;96.00;;;;;;5005730;28;20062;-81
2023/06/11 10:38:37;;;;;;;2.90;0.80;;;32.90;95.00;;;;;;5018461;28;20085;-81
2023/06/11 10:41:03;;;;;;;1.50;0.85;;;32.50;95.60;;;;;;5000706;28;20022;-80
2023/06/11 10:43:33;;;;;;;2.05;0.93;;;32.80;96.30;;;;;;5008241;28;20045;-80
2023/06/11 10:46:03;;;;;;;2.08;0.80;;;33.20;96.00;;;;;;5001325;28;20125;-80
2023/06/11 10:48:30;;;;;;;1.77;0.85;;;33.50;95.50;;;;;;5019862;28;20084;-80
2023/06/11 10:51:05;;;;;;;1.60;0.70;;;33.40;95.70;;;;;;5008463;28;20027;-80
2023/06/11 10:53:40;;;;;;;1.35;0.90;;;33.60;95.90;;;;;;4990955;28;20033;-80
2023/06/11 10:56:11;;;;;;;2.03;0.70;;;33.60;95.50;;;;;;5008178;28;20061;-80
2023/06/11 10:58:38;;;;;;;1.85;1.02;;;33.40;95.00;;;;;;5001578;28;20049;-80
2023/06/11 11:01:08;;;;;;;2.03;0.70;;;33.00;95.00;;;;;;5003306;28;20018;-80
2023/06/11 11:03:34;;;;;;;1.73;0.70;;;33.70;94.90;;;;;;5021663;28;20462;-81
2023/06/11 11:06:00;;;;;;;2.00;0.90;;;33.40;94.70;;;;;;5018913;28;20152;-80
2023/06/11 11:08:26;;;;;;;1.60;0.80;;;33.20;94.50;;;;;;5003352;28;20470;-80
2023/06/11 11:10:59;;;;;;;1.23;0.70;;;33.00;94.30;;;;;;5001957;28;20034;-79
2023/06/11 11:13:50;;;;;;;1.65;0.77;;;33.50;94.30;;;;;;5002982;28;20033;-80
2023/06/11 11:16:20;;;;;;;1.10;0.52;;;33.40;94.80;;;;;;5008618;28;20030;-81
2023/06/11 11:18:47;;;;;;;2.45;1.00;;;33.40;94.50;;;;;;5014026;28;20042;-80
2023/06/11 11:21:13;;;;;;;1.30;0.60;;;33.30;94.30;;;;;;5005764;28;20596;-80
2023/06/11 11:23:38;;;;;;;1.08;0.60;;;33.00;94.40;;;;;;5002810;28;20622;-80
2023/06/11 11:26:04;;;;;;;1.25;0.60;;;33.40;94.20;;;;;;5004529;28;20060;-79
2023/06/11 11:28:34;;;;;;;1.23;0.60;;;33.40;93.80;;;;;;5003097;28;20030;-80
2023/06/11 11:31:01;;;;;;;1.55;0.70;;;33.30;93.80;;;;;;5012903;28;20088;-79
2023/06/11 11:33:29;;;;;;;1.40;0.75;;;32.60;93.80;;;;;;5004749;28;20037;-79
2023/06/11 11:35:55;;;;;;;1.27;0.75;;;32.70;93.90;;;;;;5018139;28;20091;-79
2023/06/11 11:38:22;;;;;;;1.50;0.70;;;32.90;93.90;;;;;;5004767;28;20113;-80
2023/06/11 11:40:57;;;;;;;1.98;0.70;;;33.10;93.70;;;;;;5006787;28;20384;-79
2023/06/11 11:43:23;;;;;;;1.00;0.52;;;33.50;93.80;;;;;;5004181;28;20108;-79
2023/06/11 11:45:49;;;;;;;1.77;0.80;;;33.30;94.30;;;;;;5018239;28;20030;-81
2023/06/11 11:48:16;;;;;;;0.88;0.50;;;33.00;93.10;;;;;;5007090;28;20035;-80
2023/06/11 11:50:45;;;;;;;2.13;0.60;;;33.00;93.80;;;;;;5000774;28;20026;-80
2023/06/11 11:53:14;;;;;;;;;;;33.70;93.40;;;;;;5008597;28;20036;-79
2023/06/11 11:55:45;;;;;;;2.83;0.60;;;33.70;93.30;;;;;;4988732;28;20008;-81
2023/06/11 11:58:17;;;;;;;2.28;0.60;;;33.90;93.70;;;;;;5001431;28;20105;-81
2023/06/11 12:00:51;;;;;;;1.30;0.70;;;34.00;93.10;;;;;;5002041;28;20045;-80
2023/06/11 12:03:23;;;;;;;1.10;0.50;;;33.60;93.40;;;;;;5002247;28;20466;-80
2023/06/11 12:06:04;;;;;;;1.80;0.60;;;34.00;93.40;;;;;;5001363;28;20120;-80
2023/06/11 12:08:31;;;;;;;2.08;0.60;;;34.10;93.60;;;;;;5002872;28;20108;-80
2023/06/11 12:10:58;;;;;;;1.50;0.70;;;34.70;92.90;;;;;;4996720;28;20118;-81
2023/06/11 12:13:24;;;;;;;1.08;0.50;;;34.50;92.70;;;;;;4993356;28;20040;-82
2023/06/11 12:15:50;;;;;;;1.20;0.50;;;34.20;93.00;;;;;;4996489;28;20076;-82
2023/06/11 12:18:16;;;;;;;1.63;0.50;;;34.20;93.40;;;;;;5002758;28;20076;-81
2023/06/11 12:20:42;;;;;;;0.98;0.57;;;34.20;92.70;;;;;;4998581;28;20034;-81
2023/06/11 12:23:08;;;;;;;1.15;0.50;;;34.50;92.30;;;;;;5001436;28;20030;-82
2023/06/11 12:25:37;;;;;;;1.13;0.50;;;33.60;92.50;;;;;;5002007;28;20061;-81
2023/06/11 12:28:03;;;;;;;1.05;0.60;;;33.50;92.40;;;;;;5002380;28;20033;-82
2023/06/11 12:30:30;;;;;;;1.45;0.68;;;33.30;92.00;;;;;;5005947;28;20089;-81
2023/06/11 12:32:57;;;;;;;1.00;0.50;;;33.10;92.50;;;;;;5003383;28;20034;-80
2023/06/11 12:35:23;;;;;;;0.90;0.50;;;33.60;93.40;;;;;;4982342;28;20061;-81
2023/06/11 12:37:50;;;;;;;1.23;0.70;;;33.90;93.20;;;;;;5003557;28;20022;-81
2023/06/11 12:40:16;;;;;;;1.60;0.70;;;33.50;93.30;;;;;;5016726;28;20042;-82
2023/06/11 12:42:44;;;;;;;1.20;0.60;;;33.40;93.60;;;;;;5005807;28;20463;-82
2023/06/11 12:45:10;;;;;;;2.80;0.70;;;34.00;92.90;;;;;;5008819;28;20022;-80
2023/06/11 12:47:37;;;;;;;1.05;0.60;;;34.30;92.40;;;;;;5004147;28;20054;-81
2023/06/11 12:50:03;;;;;;;1.10;0.70;;;33.90;91.80;;;;;;5020463;28;20037;-81